Time;durP1;ratioP1;P1;durP2;ratioP2;P2;SDS_P1;SDS_P2;PMS_P1;PMS_P2;Temp;Humidity;BMP_temperature;BMP_pressure;BME280_temperature;BME280_humidity;BME280_pressure;Samples;Min_cycle;Max_cycle;Signal;HPM_P1;HPM_P2
2023/10/10 00:01:01;;;;;;;9.23;5.57;;;460.90;2380.80;;;;;;5082221;28;20051;-60
2023/10/10 00:03:31;;;;;;;8.32;4.93;;;460.90;2380.80;;;;;;5090017;28;20027;-60
2023/10/10 00:05:58;;;;;;;8.88;5.35;;;461.00;2380.80;;;;;;5089546;28;20028;-59
2023/10/10 00:08:36;;;;;;;12.95;5.60;;;461.10;2380.80;;;;;;5089760;28;20063;-60
2023/10/10 00:11:12;;;;;;;8.70;5.25;;;461.10;2380.80;;;;;;5089035;28;20034;-60
2023/10/10 00:13:42;;;;;;;9.85;5.78;;;461.10;2380.80;;;;;;5089558;28;20028;-60
2023/10/10 00:16:19;;;;;;;10.32;5.65;;;461.10;2380.80;;;;;;5063854;28;20454;-60
2023/10/10 00:18:49;;;;;;;14.43;6.57;;;461.10;2380.80;;;;;;5089103;28;20032;-60
2023/10/10 00:21:23;;;;;;;9.40;5.95;;;461.10;2380.80;;;;;;5089242;28;20501;-60
2023/10/10 00:23:50;;;;;;;10.15;6.03;;;461.20;2380.80;;;;;;5089595;28;20028;-60
2023/10/10 00:26:26;;;;;;;10.52;4.97;;;461.20;2380.80;;;;;;5089380;28;20034;-60
2023/10/10 00:28:55;;;;;;;12.50;5.65;;;461.10;2380.80;;;;;;5080949;28;20025;-59
2023/10/10 00:31:26;;;;;;;7.90;4.68;;;461.10;2380.80;;;;;;5070261;28;20020;-61
2023/10/10 00:33:53;;;;;;;11.38;5.20;;;461.10;2380.80;;;;;;5089074;28;20119;-61
2023/10/10 00:36:25;;;;;;;11.18;5.97;;;461.10;2380.80;;;;;;5088727;28;20070;-60
2023/10/10 00:38:58;;;;;;;14.82;5.75;;;461.10;2380.80;;;;;;5076399;28;20112;-60
2023/10/10 00:41:24;;;;;;;11.68;5.35;;;461.10;2380.80;;;;;;5075015;28;20035;-61
2023/10/10 00:43:49;;;;;;;7.88;4.50;;;461.10;2380.80;;;;;;5089331;28;20103;-60
2023/10/10 00:46:15;;;;;;;11.38;5.57;;;461.10;2380.80;;;;;;5089022;28;20470;-60
2023/10/10 00:48:44;;;;;;;12.00;6.00;;;461.10;2380.80;;;;;;5089160;28;20020;-61
2023/10/10 00:51:20;;;;;;;9.32;5.07;;;461.10;2380.80;;;;;;5088282;28;20025;-60
2023/10/10 00:54:11;;;;;;;8.30;4.70;;;461.10;2380.80;;;;;;5089078;28;20119;-59
2023/10/10 00:56:35;;;;;;;16.42;5.93;;;461.00;2380.80;;;;;;5088683;28;20055;-61
2023/10/10 00:59:03;;;;;;;10.98;5.60;;;460.90;2380.80;;;;;;5088881;28;20069;-61
2023/10/10 01:01:29;;;;;;;14.48;5.63;;;461.00;2380.80;;;;;;5088773;28;20463;-60
2023/10/10 01:03:57;;;;;;;11.52;6.70;;;461.00;2380.80;;;;;;5089002;28;20054;-60
2023/10/10 01:06:26;;;;;;;10.43;5.85;;;461.00;2380.80;;;;;;5078128;28;20008;-62
2023/10/10 01:08:59;;;;;;;8.30;5.32;;;460.90;2380.80;;;;;;5074072;28;20374;-61
2023/10/10 01:11:24;;;;;;;13.80;5.93;;;461.00;2380.80;;;;;;5088883;28;20027;-60
2023/10/10 01:13:56;;;;;;;10.02;5.18;;;461.00;2380.80;;;;;;5088321;28;20044;-60
2023/10/10 01:16:24;;;;;;;9.75;5.63;;;461.00;2380.80;;;;;;5088872;28;20032;-60
2023/10/10 01:18:59;;;;;;;10.65;5.95;;;461.00;2380.80;;;;;;5087913;28;20023;-60
2023/10/10 01:21:32;;;;;;;11.02;5.35;;;460.90;2380.80;;;;;;5088778;28;20051;-60
2023/10/10 01:24:21;;;;;;;;;;;460.90;2380.80;;;;;;5088581;28;20111;-60
2023/10/10 01:26:50;;;;;;;10.93;4.82;;;461.00;2380.80;;;;;;5087421;28;19915;-59
2023/10/10 01:29:25;;;;;;;9.60;5.07;;;461.00;2380.80;;;;;;5088472;28;20405;-60
2023/10/10 01:31:58;;;;;;;9.82;5.18;;;461.00;2380.80;;;;;;5088634;28;20350;-60
2023/10/10 01:34:30;;;;;;;14.38;5.53;;;461.00;2380.80;;;;;;5088545;28;20057;-60
2023/10/10 01:37:20;;;;;;;8.77;5.47;;;461.00;2380.80;;;;;;5068657;28;20037;-60
2023/10/10 01:39:54;;;;;;;12.75;5.65;;;460.90;2380.80;;;;;;5067118;28;20119;-59
2023/10/10 01:42:37;;;;;;;10.48;5.50;;;460.90;2380.80;;;;;;5088340;28;20032;-62
2023/10/10 01:45:07;;;;;;;10.68;5.25;;;460.80;2380.80;;;;;;5088044;28;20089;-60
2023/10/10 01:47:34;;;;;;;15.23;5.75;;;460.80;2380.80;;;;;;5087875;28;20082;-60
2023/10/10 01:50:10;;;;;;;9.18;5.38;;;460.80;2380.80;;;;;;5088436;28;20020;-61
2023/10/10 01:52:37;;;;;;;8.88;4.90;;;460.80;2380.80;;;;;;5088515;28;20040;-60
2023/10/10 01:55:05;;;;;;;10.13;4.75;;;460.80;2380.80;;;;;;5088517;28;20370;-60
2023/10/10 01:57:31;;;;;;;8.80;5.00;;;460.90;2380.80;;;;;;5087544;28;20028;-60
2023/10/10 01:59:58;;;;;;;12.13;5.55;;;460.90;2380.80;;;;;;5088346;28;20016;-60
2023/10/10 02:02:30;;;;;;;8.52;4.50;;;460.90;2380.80;;;;;;5088215;28;20048;-60
2023/10/10 02:04:59;;;;;;;10.13;5.30;;;460.90;2380.80;;;;;;5088579;28;20181;-60
2023/10/10 02:07:31;;;;;;;13.00;5.30;;;460.80;2380.80;;;;;;5074585;28;20078;-60
2023/10/10 02:10:13;;;;;;;7.57;5.10;;;436.00;2355.20;;;;;;5067509;28;20021;-60
2023/10/10 02:12:44;;;;;;;7.55;5.28;;;460.80;2380.80;;;;;;5086502;28;20027;-60
2023/10/10 02:15:12;;;;;;;7.45;4.78;;;460.80;2380.80;;;;;;5087735;28;20035;-61
2023/10/10 02:17:39;;;;;;;8.38;4.82;;;436.10;2355.20;;;;;;5087934;28;20020;-60
2023/10/10 02:22:52;;;;;;;9.23;5.35;;;436.10;2355.20;;;;;;5091693;28;20096;-60
2023/10/10 02:27:55;;;;;;;7.32;5.45;;;436.00;2355.20;;;;;;5091448;28;20484;-60
2023/10/10 02:30:34;;;;;;;10.13;4.40;;;436.10;2355.20;;;;;;5091420;28;20027;-60
2023/10/10 02:35:54;;;;;;;9.35;4.97;;;436.10;2355.20;;;;;;5068398;28;20031;-60
2023/10/10 02:39:18;;;;;;;11.25;4.32;;;436.10;2355.20;;;;;;5086853;28;20088;-60
2023/10/10 02:44:09;;;;;;;10.95;5.38;;;460.80;2380.80;;;;;;5091882;28;20330;-60
2023/10/10 02:46:47;;;;;;;7.38;4.72;;;460.80;2380.80;;;;;;5091329;28;20030;-61
2023/10/10 02:49:29;;;;;;;9.73;5.60;;;436.10;2355.20;;;;;;5073793;28;20541;-60
2023/10/10 02:51:56;;;;;;;9.65;6.32;;;436.10;2355.20;;;;;;5070407;28;20035;-61
2023/10/10 02:56:57;;;;;;;9.63;6.97;;;436.10;2355.20;;;;;;5076508;28;20478;-60
2023/10/10 02:59:43;;;;;;;10.63;6.70;;;460.80;2380.80;;;;;;5072434;28;20045;-61
2023/10/10 03:02:10;;;;;;;13.52;9.05;;;436.10;2355.20;;;;;;5091578;28;20035;-60
2023/10/10 03:07:27;;;;;;;10.60;7.13;;;436.10;2355.20;;;;;;5090636;28;20031;-62
2023/10/10 03:12:38;;;;;;;9.23;6.28;;;436.10;2355.20;;;;;;5090857;28;20007;-60
2023/10/10 03:15:15;;;;;;;12.18;6.38;;;436.00;2355.20;;;;;;5090938;28;20099;-60
2023/10/10 03:20:34;;;;;;;16.02;6.03;;;436.00;2355.20;;;;;;5072309;28;20097;-60
2023/10/10 03:31:05;;;;;;;11.32;6.07;;;435.90;2355.20;;;;;;5066168;28;20130;-60
2023/10/10 03:33:36;;;;;;;10.55;4.95;;;435.90;2355.20;;;;;;5086733;28;20081;-59
2023/10/10 03:36:13;;;;;;;8.02;4.90;;;435.90;2355.20;;;;;;5070341;28;20024;-60
2023/10/10 05:25:37;;;;;;;35.53;31.17;;;410.50;2355.20;;;;;;5083880;28;20078;-60
2023/10/10 05:28:03;;;;;;;13.55;6.97;;;410.50;2355.20;;;;;;5073998;28;20036;-60
2023/10/10 05:30:39;;;;;;;9.13;6.90;;;410.50;2355.20;;;;;;5079226;28;20121;-60
2023/10/10 05:33:06;;;;;;;12.57;7.35;;;410.50;2355.20;;;;;;5078849;28;20052;-60
2023/10/10 05:35:34;;;;;;;11.90;6.68;;;435.20;2355.20;;;;;;5082518;28;20051;-61
2023/10/10 05:38:01;;;;;;;9.98;5.28;;;435.30;2355.20;;;;;;5078026;28;20039;-60
2023/10/10 05:40:27;;;;;;;7.88;5.78;;;435.30;2355.20;;;;;;5080975;28;20034;-61
2023/10/10 05:42:57;;;;;;;9.30;4.72;;;435.60;2355.20;;;;;;5078136;28;20028;-60
2023/10/10 05:45:22;;;;;;;12.98;6.40;;;435.70;2355.20;;;;;;5071971;28;20032;-60
2023/10/10 05:47:48;;;;;;;10.60;5.38;;;435.90;2355.20;;;;;;5088340;28;20077;-61
2023/10/10 05:50:14;;;;;;;8.95;4.80;;;435.90;2355.20;;;;;;5088635;28;20444;-60
2023/10/10 05:52:40;;;;;;;10.35;5.15;;;460.80;2380.80;;;;;;5078650;28;20033;-60
2023/10/10 05:55:10;;;;;;;10.23;5.57;;;436.10;2355.20;;;;;;5090810;28;20052;-60
2023/10/10 05:57:36;;;;;;;13.40;6.13;;;436.10;2355.20;;;;;;5091910;28;20093;-60
2023/10/10 06:00:13;;;;;;;10.98;6.07;;;435.80;2355.20;;;;;;5080847;28;20028;-60
2023/10/10 06:02:45;;;;;;;9.65;4.95;;;435.90;2355.20;;;;;;5084748;28;20053;-61
2023/10/10 06:05:15;;;;;;;11.93;6.47;;;436.00;2355.20;;;;;;5091577;28;20374;-61
2023/10/10 06:07:44;;;;;;;8.77;5.00;;;460.80;2380.80;;;;;;5091298;28;20412;-60
2023/10/10 06:10:16;;;;;;;11.70;5.15;;;461.10;2380.80;;;;;;5091472;28;20419;-61
2023/10/10 06:12:46;;;;;;;10.43;4.22;;;461.40;2380.80;;;;;;5089721;28;20032;-60
2023/10/10 06:15:17;;;;;;;12.52;5.18;;;461.20;2380.80;;;;;;5091893;28;20059;-61
2023/10/10 06:17:48;;;;;;;14.40;5.25;;;461.30;2380.80;;;;;;5091629;28;20477;-61
2023/10/10 06:20:16;;;;;;;8.32;5.68;;;461.40;2380.80;;;;;;5091604;28;20044;-60
2023/10/10 06:22:45;;;;;;;12.05;6.68;;;461.30;2380.80;;;;;;5091407;28;20023;-60
2023/10/10 06:25:17;;;;;;;7.72;4.95;;;461.40;2380.80;;;;;;5084413;28;20107;-61
2023/10/10 06:27:46;;;;;;;9.70;6.47;;;486.40;2380.80;;;;;;5088978;28;20035;-61
2023/10/10 06:30:17;;;;;;;8.82;4.15;;;461.60;2380.80;;;;;;5090214;28;20024;-60
2023/10/10 06:32:47;;;;;;;10.55;5.75;;;461.40;2380.80;;;;;;5085290;28;20485;-60
2023/10/10 06:37:51;;;;;;;8.27;5.72;;;563.60;2432.00;;;;;;5090135;28;20099;-61
2023/10/10 06:40:24;;;;;;;8.13;5.90;;;614.70;2432.00;;;;;;5087909;28;20110;-62
2023/10/10 06:42:55;;;;;;;10.10;6.20;;;665.80;2227.20;;;;;;5089902;28;20057;-65
2023/10/10 06:45:26;;;;;;;12.98;6.57;;;666.20;2150.40;;;;;;5078582;28;20085;-66
2023/10/10 06:47:54;;;;;;;13.32;6.15;;;692.00;2022.40;;;;;;5087192;28;20023;-64
2023/10/10 06:50:23;;;;;;;10.68;5.63;;;717.10;1971.20;;;;;;5090246;28;20028;-64
2023/10/10 06:52:52;;;;;;;9.13;5.43;;;717.10;1945.60;;;;;;5087359;28;20052;-63
2023/10/10 06:55:36;;;;;;;8.85;5.47;;;691.70;1945.60;;;;;;5069156;28;20477;-64
2023/10/10 06:58:02;;;;;;;10.88;5.75;;;665.90;2048.00;;;;;;5067704;28;20035;-64
2023/10/10 07:03:04;;;;;;;10.00;5.50;;;666.00;2048.00;;;;;;5068983;28;20477;-63
2023/10/10 07:05:33;;;;;;;12.90;6.18;;;717.70;1868.80;;;;;;5067921;28;20025;-65
2023/10/10 07:07:59;;;;;;;9.48;6.15;;;768.30;1792.00;;;;;;5070138;28;20053;-65
2023/10/10 07:10:32;;;;;;;8.43;5.75;;;819.30;1689.60;;;;;;5070377;28;20302;-64
2023/10/10 07:13:02;;;;;;;;;;;794.50;1664.00;;;;;;5068895;28;20074;-65
2023/10/10 07:15:34;;;;;;;8.73;6.07;;;793.70;1715.20;;;;;;5068625;28;19931;-65
2023/10/10 07:18:08;;;;;;;10.15;6.22;;;794.50;1689.60;;;;;;5068664;28;20031;-66
2023/10/10 07:23:22;;;;;;;10.93;5.80;;;819.60;1612.80;;;;;;5065815;28;20081;-65
2023/10/10 07:26:01;;;;;;;10.32;5.95;;;793.90;1664.00;;;;;;5074534;28;20449;-65
2023/10/10 07:28:27;;;;;;;9.80;5.40;;;768.10;1689.60;;;;;;5075648;28;20035;-65
2023/10/10 07:30:55;;;;;;;9.82;5.35;;;742.50;1715.20;;;;;;5070302;28;20029;-65
2023/10/10 07:33:29;;;;;;;10.18;5.28;;;742.40;1689.60;;;;;;5081670;28;20028;-65
2023/10/10 07:35:55;;;;;;;6.40;4.45;;;717.50;1689.60;;;;;;5082885;28;20028;-65
2023/10/10 07:38:28;;;;;;;8.60;4.47;;;716.90;1740.80;;;;;;5085336;28;20079;-65
2023/10/10 07:40:54;;;;;;;9.32;4.63;;;691.70;1766.40;;;;;;5064674;28;20029;-64
2023/10/10 07:43:26;;;;;;;9.98;4.57;;;691.20;1843.20;;;;;;5072420;28;20024;-66
2023/10/10 07:45:54;;;;;;;9.68;4.57;;;665.90;1894.40;;;;;;5065196;28;20046;-65
2023/10/10 07:51:05;;;;;;;12.07;5.20;;;640.90;1817.60;;;;;;5088528;28;20031;-65
2023/10/10 07:53:44;;;;;;;9.25;4.93;;;640.60;1817.60;;;;;;5088103;28;20540;-64
2023/10/10 07:56:10;;;;;;;9.52;4.97;;;640.60;1868.80;;;;;;5083366;28;20027;-66
2023/10/10 07:58:43;;;;;;;8.18;4.88;;;640.20;1894.40;;;;;;5068048;28;20036;-65
2023/10/10 08:01:19;;;;;;;9.35;5.40;;;615.30;1945.60;;;;;;5071462;28;20051;-63
2023/10/10 08:03:46;;;;;;;8.70;4.65;;;615.20;1971.20;;;;;;5062152;28;20039;-64
2023/10/10 08:06:17;;;;;;;15.60;5.45;;;640.20;1945.60;;;;;;5086288;28;20031;-65
2023/10/10 08:08:44;;;;;;;10.63;5.55;;;640.40;1894.40;;;;;;5086866;28;20043;-64
2023/10/10 08:11:13;;;;;;;15.60;6.22;;;640.30;1894.40;;;;;;5077615;28;20103;-64
2023/10/10 08:13:41;;;;;;;8.77;5.90;;;640.10;1894.40;;;;;;5070338;28;20044;-64
2023/10/10 08:16:07;;;;;;;11.30;5.97;;;666.10;1843.20;;;;;;5071204;28;20026;-65
2023/10/10 08:21:13;;;;;;;12.60;6.32;;;666.00;1792.00;;;;;;5081716;28;20121;-65
2023/10/10 08:23:45;;;;;;;13.50;7.15;;;717.50;1664.00;;;;;;5082077;28;20036;-64
2023/10/10 08:26:26;;;;;;;11.70;6.45;;;691.70;1740.80;;;;;;5076380;28;20078;-65
2023/10/10 08:28:52;;;;;;;17.40;5.80;;;666.30;1766.40;;;;;;5076440;28;20062;-64
2023/10/10 08:31:18;;;;;;;18.25;6.68;;;691.30;1766.40;;;;;;5082259;28;20032;-63
2023/10/10 08:33:46;;;;;;;11.63;5.40;;;691.20;1766.40;;;;;;5078945;28;20044;-63
2023/10/10 08:36:24;;;;;;;10.25;5.47;;;666.40;1792.00;;;;;;5079328;28;20020;-65
2023/10/10 08:38:57;;;;;;;10.80;6.03;;;691.80;1740.80;;;;;;5069028;28;20051;-64
2023/10/10 08:41:27;;;;;;;8.55;5.80;;;717.10;1715.20;;;;;;5081667;28;20063;-64
2023/10/10 08:44:06;;;;;;;10.32;6.60;;;742.50;1689.60;;;;;;5083815;28;20028;-63
2023/10/10 08:46:40;;;;;;;8.05;5.95;;;742.40;1664.00;;;;;;5080081;28;20028;-65
2023/10/10 08:49:07;;;;;;;8.32;5.93;;;743.30;1587.20;;;;;;5087189;28;20043;-64
2023/10/10 08:51:35;;;;;;;10.30;6.70;;;794.50;1536.00;;;;;;5075300;28;20024;-65
2023/10/10 08:54:12;;;;;;;10.30;5.57;;;819.60;1484.80;;;;;;5076469;28;20040;-64
2023/10/10 08:56:59;;;;;;;9.57;6.07;;;768.40;1561.60;;;;;;5087608;28;20118;-65
2023/10/10 08:59:26;;;;;;;16.90;6.68;;;742.80;1612.80;;;;;;5088903;28;20077;-63
2023/10/10 09:01:51;;;;;;;11.93;6.07;;;743.30;1612.80;;;;;;5089003;28;20081;-65
2023/10/10 09:04:19;;;;;;;11.20;6.13;;;742.60;1638.40;;;;;;5089080;28;20028;-65
2023/10/10 09:09:35;;;;;;;10.30;5.93;;;692.10;1664.00;;;;;;5075434;28;20433;-66
2023/10/10 09:12:12;;;;;;;11.82;5.40;;;716.90;1689.60;;;;;;5076501;28;20028;-65
2023/10/10 09:14:40;;;;;;;13.85;6.05;;;691.90;1689.60;;;;;;5085942;28;20024;-65
2023/10/10 09:17:10;;;;;;;10.25;6.20;;;691.70;1715.20;;;;;;5079266;28;20028;-65
2023/10/10 09:19:42;;;;;;;12.73;6.53;;;691.60;1715.20;;;;;;5088189;28;20035;-63
2023/10/10 09:22:25;;;;;;;12.43;5.70;;;691.30;1740.80;;;;;;5076535;28;20118;-64
2023/10/10 09:24:55;;;;;;;14.35;6.20;;;666.40;1792.00;;;;;;5071431;28;20459;-64
2023/10/10 09:27:22;;;;;;;9.50;5.28;;;666.20;1817.60;;;;;;5079572;28;20031;-65
2023/10/10 09:29:54;;;;;;;17.50;6.82;;;666.20;1792.00;;;;;;5090441;28;20031;-64
2023/10/10 09:32:28;;;;;;;10.77;6.40;;;666.00;1792.00;;;;;;5078899;28;20032;-64
2023/10/10 09:34:57;;;;;;;12.77;6.45;;;666.10;1817.60;;;;;;5083737;28;20056;-66
2023/10/10 09:37:30;;;;;;;13.48;6.55;;;666.30;1792.00;;;;;;5085595;28;20478;-64
2023/10/10 09:39:56;;;;;;;13.10;6.15;;;665.70;1817.60;;;;;;5084361;28;20032;-64
2023/10/10 09:42:27;;;;;;;16.35;5.68;;;640.40;1843.20;;;;;;5084163;28;20028;-65
2023/10/10 09:50:37;;;;;;;16.13;8.10;;;640.40;1843.20;;;;;;5029723;28;20092;-65
2023/10/10 09:53:19;;;;;;;12.48;5.75;;;640.90;1792.00;;;;;;5029914;28;20033;-66
2023/10/10 09:55:45;;;;;;;13.50;5.95;;;666.10;1817.60;;;;;;5018679;28;20044;-65
2023/10/10 10:06:27;;;;;;;15.13;5.65;;;665.60;1843.20;;;;;;5018316;28;20108;-64
2023/10/10 10:09:14;;;;;;;10.32;5.95;;;640.70;1817.60;;;;;;5029460;28;20538;-65
2023/10/10 10:12:00;;;;;;;11.82;5.97;;;640.60;1843.20;;;;;;5029325;28;20026;-64
2023/10/10 10:14:53;;;;;;;13.07;6.70;;;640.70;1843.20;;;;;;5029535;28;20052;-65
2023/10/10 10:17:46;;;;;;;9.73;6.03;;;640.50;1868.80;;;;;;4951965;29;20126;-65
2023/10/10 10:20:21;;;;;;;18.70;7.32;;;640.20;1894.40;;;;;;4957158;28;20068;-65
2023/10/10 10:22:53;;;;;;;16.50;7.20;;;615.30;1920.00;;;;;;5008301;28;20502;-64
2023/10/10 10:25:28;;;;;;;11.45;6.00;;;615.30;1920.00;;;;;;5024117;28;20040;-63
2023/10/10 10:28:01;;;;;;;13.90;7.05;;;614.90;1945.60;;;;;;5014171;28;20514;-64
2023/10/10 10:33:02;;;;;;;16.58;6.85;;;614.60;1945.60;;;;;;5029253;28;20052;-62
2023/10/10 10:36:05;;;;;;;12.38;6.28;;;614.60;1996.80;;;;;;5009299;28;20062;-64
2023/10/10 10:38:33;;;;;;;9.98;6.13;;;614.40;1945.60;;;;;;5010247;28;20029;-64
2023/10/10 10:41:07;;;;;;;15.55;6.72;;;614.60;1945.60;;;;;;5004488;28;20376;-64
2023/10/10 10:43:41;;;;;;;9.50;5.18;;;614.80;1945.60;;;;;;5027220;28;20426;-64
2023/10/10 10:46:14;;;;;;;14.80;5.40;;;614.40;1971.20;;;;;;5017485;28;20443;-62
2023/10/10 10:48:46;;;;;;;;;;;589.70;1971.20;;;;;;5011087;28;20042;-65
2023/10/10 10:51:25;;;;;;;12.82;5.97;;;614.50;1945.60;;;;;;5018475;28;19909;-63
2023/10/10 10:53:52;;;;;;;8.48;5.18;;;615.00;1945.60;;;;;;5024479;28;20118;-63
2023/10/10 11:01:29;;;;;;;15.80;6.55;;;614.90;1920.00;;;;;;5075698;28;20112;-64
2023/10/10 11:03:57;;;;;;;9.63;5.47;;;615.30;1920.00;;;;;;5074417;28;20032;-65
2023/10/10 11:06:28;;;;;;;17.25;5.85;;;615.10;1894.40;;;;;;5080524;28;20055;-64
2023/10/10 11:09:08;;;;;;;13.30;6.30;;;614.90;1920.00;;;;;;5079337;28;20077;-64
2023/10/10 11:16:52;;;;;;;11.15;5.75;;;614.80;1945.60;;;;;;5089572;28;20462;-65
2023/10/10 11:22:38;;;;;;;10.55;5.28;;;614.50;1945.60;;;;;;5089145;28;20077;-64
2023/10/10 11:24:57;;;;;;;11.73;5.45;;;614.50;1945.60;;;;;;5087830;28;20526;-66
2023/10/10 11:27:29;;;;;;;9.32;5.28;;;614.60;1945.60;;;;;;5087863;28;20044;-63
2023/10/10 11:30:00;;;;;;;16.50;8.48;;;614.80;1971.20;;;;;;5075620;28;20037;-64
2023/10/10 11:32:36;;;;;;;10.30;6.00;;;614.80;1945.60;;;;;;5066400;28;20015;-65
2023/10/10 11:35:17;;;;;;;18.88;6.32;;;615.00;1920.00;;;;;;5088262;28;20040;-64
2023/10/10 11:38:35;;;;;;;13.15;5.53;;;615.10;1920.00;;;;;;5077952;28;20025;-63
2023/10/10 11:40:31;;;;;;;13.95;5.47;;;640.00;1920.00;;;;;;5058934;28;20085;-63
2023/10/10 11:42:57;;;;;;;10.00;5.82;;;615.20;1894.40;;;;;;5087060;28;20085;-63
2023/10/10 11:45:27;;;;;;;13.93;5.68;;;615.00;1920.00;;;;;;5075356;28;20016;-64
2023/10/10 11:48:00;;;;;;;10.77;5.47;;;615.20;1920.00;;;;;;5088591;28;20353;-64
2023/10/10 11:50:43;;;;;;;;;;;615.30;1945.60;;;;;;5080190;28;20060;-64
2023/10/10 11:53:12;;;;;;;9.20;5.70;;;640.00;1894.40;;;;;;5066073;28;19916;-64
2023/10/10 11:55:41;;;;;;;10.68;6.20;;;640.40;1920.00;;;;;;5088059;28;20032;-64
2023/10/10 11:58:16;;;;;;;11.25;6.18;;;640.60;1920.00;;;;;;5088400;28;20068;-64
2023/10/10 12:00:59;;;;;;;13.20;6.72;;;665.60;1843.20;;;;;;5073385;28;20397;-65
2023/10/10 12:06:00;;;;;;;13.52;6.25;;;666.00;1843.20;;;;;;5058277;28;20031;-65
2023/10/10 12:08:26;;;;;;;13.77;6.70;;;666.20;1843.20;;;;;;5070081;28;20017;-65
2023/10/10 12:11:11;;;;;;;10.90;5.88;;;666.30;1843.20;;;;;;5068290;28;20062;-65
2023/10/10 12:13:37;;;;;;;14.07;5.50;;;666.40;1843.20;;;;;;5082093;28;20032;-65
2023/10/10 12:16:07;;;;;;;15.57;7.00;;;666.00;1792.00;;;;;;5071859;28;20505;-65
2023/10/10 12:18:35;;;;;;;12.27;6.35;;;666.30;1817.60;;;;;;5077862;28;20492;-65
2023/10/10 12:21:02;;;;;;;10.30;6.40;;;666.50;1817.60;;;;;;5074218;28;20044;-66
2023/10/10 12:23:31;;;;;;;8.95;5.38;;;666.30;1843.20;;;;;;5083995;28;20016;-65
2023/10/10 12:25:59;;;;;;;8.02;5.63;;;666.40;1792.00;;;;;;5067279;28;20024;-65
2023/10/10 12:28:26;;;;;;;10.77;5.82;;;666.10;1792.00;;;;;;5067027;28;20031;-64
2023/10/10 12:30:56;;;;;;;12.65;5.22;;;666.10;1792.00;;;;;;5071863;28;20636;-66
2023/10/10 12:33:25;;;;;;;10.63;6.40;;;666.00;1843.20;;;;;;5073818;28;20061;-65
2023/10/10 12:35:51;;;;;;;11.23;5.85;;;666.10;1868.80;;;;;;5079127;28;20498;-65
2023/10/10 12:38:21;;;;;;;13.40;5.53;;;666.00;1843.20;;;;;;5069803;28;20514;-65
2023/10/10 12:40:56;;;;;;;17.23;5.35;;;665.90;1843.20;;;;;;5067366;28;20034;-64
2023/10/10 12:43:25;;;;;;;10.80;5.93;;;665.80;1817.60;;;;;;5067435;28;20024;-65
2023/10/10 12:45:54;;;;;;;10.55;5.57;;;665.70;1843.20;;;;;;5072664;28;20377;-66
2023/10/10 12:48:20;;;;;;;12.45;6.20;;;665.70;1868.80;;;;;;5084334;28;20129;-64
2023/10/10 12:50:53;;;;;;;8.27;5.38;;;665.70;1843.20;;;;;;5086013;28;20182;-64
2023/10/10 12:53:20;;;;;;;7.93;5.30;;;665.90;1843.20;;;;;;5072778;28;20032;-67
2023/10/10 12:56:01;;;;;;;9.55;5.43;;;665.70;1843.20;;;;;;5074099;28;20053;-64
2023/10/10 12:58:30;;;;;;;11.93;5.55;;;665.80;1843.20;;;;;;5068328;28;20043;-64
2023/10/10 13:00:57;;;;;;;12.85;6.55;;;665.90;1868.80;;;;;;5076640;28;20557;-65
2023/10/10 13:03:28;;;;;;;11.65;6.13;;;665.70;1868.80;;;;;;5071031;28;20140;-65
2023/10/10 13:06:02;;;;;;;13.13;6.07;;;640.90;1868.80;;;;;;5069281;28;20044;-65
2023/10/10 13:08:39;;;;;;;13.02;5.65;;;640.20;1894.40;;;;;;5074759;28;20020;-65
2023/10/10 13:11:12;;;;;;;14.23;5.55;;;640.20;1894.40;;;;;;5086323;28;20032;-66
2023/10/10 13:13:45;;;;;;;14.80;6.95;;;640.60;1843.20;;;;;;5077378;28;20362;-64
2023/10/10 13:16:25;;;;;;;;;;;640.80;1868.80;;;;;;5078464;28;20097;-65
2023/10/10 13:18:59;;;;;;;11.98;6.10;;;640.70;1868.80;;;;;;5064425;28;19912;-66
2023/10/10 13:21:26;;;;;;;10.57;5.95;;;640.60;1868.80;;;;;;5084041;28;20048;-65
2023/10/10 13:23:53;;;;;;;10.98;6.30;;;640.60;1868.80;;;;;;5080434;28;20036;-65
2023/10/10 13:26:22;;;;;;;14.23;6.80;;;640.30;1868.80;;;;;;5074490;28;20078;-65
2023/10/10 13:28:49;;;;;;;11.45;5.60;;;640.20;1894.40;;;;;;5070523;28;20024;-64
2023/10/10 13:31:16;;;;;;;12.80;6.32;;;640.20;1920.00;;;;;;5071530;28;20027;-64
2023/10/10 13:33:43;;;;;;;12.07;6.80;;;640.10;1894.40;;;;;;5074903;28;20642;-64
2023/10/10 13:36:15;;;;;;;8.48;5.47;;;615.30;1920.00;;;;;;5080788;28;20032;-65
2023/10/10 13:38:49;;;;;;;14.03;7.57;;;640.10;1920.00;;;;;;5064253;28;20035;-64
2023/10/10 13:41:19;;;;;;;18.85;8.25;;;615.30;1920.00;;;;;;5067825;28;20062;-62
2023/10/10 13:43:50;;;;;;;15.30;8.13;;;614.80;1971.20;;;;;;5071198;28;20138;-65
2023/10/10 13:46:20;;;;;;;12.02;7.28;;;614.90;1996.80;;;;;;5076670;28;20063;-64
2023/10/10 13:48:49;;;;;;;12.55;7.32;;;614.90;1971.20;;;;;;5082067;28;20027;-65
2023/10/10 13:51:16;;;;;;;13.55;7.25;;;614.90;1971.20;;;;;;5082031;28;20048;-64
2023/10/10 13:53:44;;;;;;;14.40;7.45;;;614.90;1971.20;;;;;;5083421;28;20070;-64
2023/10/10 13:56:13;;;;;;;18.60;11.15;;;614.90;1971.20;;;;;;5076756;28;20037;-63
2023/10/10 13:58:47;;;;;;;18.10;10.13;;;615.00;1971.20;;;;;;5066684;28;20060;-65
2023/10/10 14:01:14;;;;;;;16.80;7.97;;;615.10;1996.80;;;;;;5073509;28;20080;-64
2023/10/10 14:03:48;;;;;;;15.70;8.20;;;614.90;1971.20;;;;;;5074834;28;20442;-65
2023/10/10 14:06:19;;;;;;;19.38;8.20;;;614.80;1971.20;;;;;;5074332;28;20058;-63
2023/10/10 14:08:49;;;;;;;15.15;8.52;;;614.80;1996.80;;;;;;5077179;28;20021;-64
2023/10/10 14:11:21;;;;;;;16.85;8.73;;;614.80;1996.80;;;;;;5053516;28;20031;-65
2023/10/10 14:13:48;;;;;;;17.98;8.45;;;614.70;1996.80;;;;;;5069077;28;20504;-67
2023/10/10 14:16:14;;;;;;;14.80;7.43;;;614.60;2022.40;;;;;;5072994;28;20078;-64
2023/10/10 14:18:46;;;;;;;15.15;8.88;;;614.50;2022.40;;;;;;5087344;28;20028;-64
2023/10/10 14:21:12;;;;;;;18.48;9.23;;;614.40;2022.40;;;;;;5080786;28;20056;-67
2023/10/10 14:23:39;;;;;;;15.25;10.27;;;614.40;2048.00;;;;;;5079631;28;20031;-64
2023/10/10 14:26:26;;;;;;;23.38;11.30;;;589.60;2048.00;;;;;;5077955;28;20016;-65
2023/10/10 14:28:52;;;;;;;21.10;12.48;;;589.70;2048.00;;;;;;5090250;28;20040;-64
2023/10/10 14:31:27;;;;;;;17.75;10.02;;;589.50;2073.60;;;;;;5089804;28;20020;-64
2023/10/10 14:33:54;;;;;;;17.58;11.45;;;589.60;2048.00;;;;;;5077730;28;20507;-65
2023/10/10 14:36:21;;;;;;;25.33;11.60;;;589.60;2099.20;;;;;;5070890;28;20037;-66
2023/10/10 14:38:51;;;;;;;16.10;11.00;;;589.60;2099.20;;;;;;5072649;28;20074;-66
2023/10/10 14:41:21;;;;;;;16.73;10.35;;;589.70;2124.80;;;;;;5073142;28;20020;-66
2023/10/10 14:43:49;;;;;;;19.48;10.00;;;589.70;2073.60;;;;;;5089121;28;20039;-66
2023/10/10 14:46:21;;;;;;;21.25;11.50;;;589.70;2073.60;;;;;;5074854;28;20124;-66
2023/10/10 14:49:06;;;;;;;16.23;10.30;;;589.60;2073.60;;;;;;5089716;28;20445;-64
2023/10/10 14:51:36;;;;;;;22.40;10.30;;;589.50;2073.60;;;;;;5089499;28;20016;-64
2023/10/10 14:54:06;;;;;;;19.20;11.68;;;589.50;2099.20;;;;;;5089547;28;20115;-63
2023/10/10 14:56:37;;;;;;;16.50;9.98;;;589.10;2124.80;;;;;;5081128;28;20031;-64
2023/10/10 14:59:05;;;;;;;18.17;10.73;;;589.20;2099.20;;;;;;5077342;28;20039;-63
2023/10/10 15:01:35;;;;;;;15.40;10.20;;;589.10;2124.80;;;;;;5084204;28;20020;-64
2023/10/10 15:04:05;;;;;;;19.90;10.38;;;589.00;2176.00;;;;;;5079941;28;20493;-67
2023/10/10 15:06:33;;;;;;;20.13;9.30;;;589.00;2150.40;;;;;;5084387;28;20032;-66
2023/10/10 15:08:59;;;;;;;16.55;10.63;;;588.90;2176.00;;;;;;5072343;28;20063;-64
2023/10/10 15:11:33;;;;;;;21.13;9.68;;;588.80;2150.40;;;;;;5075855;28;20056;-66
2023/10/10 15:13:59;;;;;;;19.27;9.35;;;588.80;2150.40;;;;;;5073410;28;20055;-67
2023/10/10 15:16:34;;;;;;;18.15;11.52;;;588.80;2201.60;;;;;;5073609;28;20031;-66
2023/10/10 15:19:02;;;;;;;18.98;10.63;;;588.80;2227.20;;;;;;5063603;28;20123;-64
2023/10/10 15:21:32;;;;;;;18.23;12.23;;;564.10;2201.60;;;;;;5086567;28;20036;-67
2023/10/10 15:23:59;;;;;;;25.50;14.10;;;564.10;2201.60;;;;;;5080129;28;20048;-65
2023/10/10 15:26:25;;;;;;;23.38;15.23;;;564.00;2201.60;;;;;;5086346;28;20119;-64
2023/10/10 15:28:52;;;;;;;28.50;17.90;;;563.80;2227.20;;;;;;5084354;28;21453;-66
2023/10/10 15:31:24;;;;;;;24.85;15.20;;;564.00;2227.20;;;;;;5069477;28;20020;-67
2023/10/10 15:33:53;;;;;;;25.63;15.57;;;563.90;2201.60;;;;;;5075306;28;20036;-66
2023/10/10 15:36:19;;;;;;;22.65;14.27;;;563.90;2252.80;;;;;;5072964;28;20496;-65